Time;durP1;ratioP1;P1;durP2;ratioP2;P2;SDS_P1;SDS_P2;PMS_P1;PMS_P2;Temp;Humidity;BMP_temperature;BMP_pressure;BME280_temperature;BME280_humidity;BME280_pressure;Samples;Min_cycle;Max_cycle;Signal;HPM_P1;HPM_P2
2021/03/25 00:00:39;;;;;;;18.83;9.35;;;;;;;;;;5014152;28;20103;-70
2021/03/25 00:03:07;;;;;;;22.85;10.45;;;;;;;;;;5030672;28;20095;-71
2021/03/25 00:05:34;;;;;;;19.73;10.30;;;;;;;;;;5013482;28;20049;-70
2021/03/25 00:08:01;;;;;;;20.38;11.27;;;;;;;;;;5014220;28;20107;-71
2021/03/25 00:10:32;;;;;;;17.60;10.48;;;;;;;;;;5014450;28;20053;-71
2021/03/25 00:12:59;;;;;;;20.77;10.40;;;;;;;;;;5013974;28;20115;-71
2021/03/25 00:15:26;;;;;;;19.52;11.07;;;;;;;;;;5013471;28;20061;-70
2021/03/25 00:17:52;;;;;;;21.13;10.30;;;;;;;;;;5013980;28;20076;-70
2021/03/25 00:20:18;;;;;;;19.48;10.10;;;;;;;;;;5030335;28;20136;-70
2021/03/25 00:22:45;;;;;;;22.85;10.38;;;;;;;;;;4981342;28;20057;-70
2021/03/25 00:25:38;;;;;;;18.52;10.45;;;;;;;;;;4997589;28;20046;-70
2021/03/25 00:28:04;;;;;;;21.10;10.10;;;;;;;;;;5010665;28;20049;-70
2021/03/25 00:30:31;;;;;;;18.10;9.13;;;;;;;;;;5014206;28;20288;-70
2021/03/25 00:32:59;;;;;;;16.80;10.15;;;;;;;;;;5013748;28;20509;-70
2021/03/25 00:35:27;;;;;;;16.30;9.88;;;;;;;;;;4997047;28;20578;-70
2021/03/25 00:37:54;;;;;;;21.83;9.55;;;;;;;;;;5013518;28;20745;-70
2021/03/25 00:40:27;;;;;;;17.25;9.73;;;;;;;;;;5030026;28;20053;-70
2021/03/25 00:42:53;;;;;;;13.93;8.82;;;;;;;;;;5029472;28;20179;-70
2021/03/25 00:45:28;;;;;;;24.30;9.80;;;;;;;;;;5012825;28;20050;-70
2021/03/25 00:47:55;;;;;;;17.33;9.75;;;;;;;;;;4997633;28;20057;-70
2021/03/25 00:50:29;;;;;;;19.40;10.00;;;;;;;;;;5029932;28;20061;-70
2021/03/25 00:52:56;;;;;;;17.35;10.13;;;;;;;;;;4997030;28;20396;-70
2021/03/25 00:55:23;;;;;;;18.63;9.98;;;;;;;;;;4996464;28;20072;-70
2021/03/25 00:57:49;;;;;;;14.57;9.88;;;;;;;;;;4981099;28;20131;-70
2021/03/25 01:00:22;;;;;;;18.10;9.35;;;;;;;;;;4994019;28;20479;-70
2021/03/25 01:02:48;;;;;;;18.00;9.32;;;;;;;;;;4993825;28;20485;-70
2021/03/25 01:05:15;;;;;;;15.70;9.65;;;;;;;;;;4993604;28;20479;-70
2021/03/25 01:07:41;;;;;;;16.30;9.18;;;;;;;;;;4993258;28;20053;-70
2021/03/25 01:10:17;;;;;;;17.60;10.23;;;;;;;;;;4993838;28;20056;-70
2021/03/25 01:12:43;;;;;;;16.60;9.40;;;;;;;;;;5008600;28;20080;-70
2021/03/25 01:15:10;;;;;;;20.95;9.30;;;;;;;;;;4996493;28;20083;-70
2021/03/25 01:17:44;;;;;;;13.88;8.93;;;;;;;;;;5012893;28;20092;-70
2021/03/25 01:20:14;;;;;;;13.75;8.60;;;;;;;;;;5013523;28;20059;-70
2021/03/25 01:22:40;;;;;;;14.30;8.30;;;;;;;;;;5013139;28;20095;-70
2021/03/25 01:25:07;;;;;;;14.07;8.57;;;;;;;;;;5013160;28;20049;-70
2021/03/25 01:27:33;;;;;;;12.20;8.68;;;;;;;;;;5000307;28;20183;-70
2021/03/25 01:29:59;;;;;;;16.05;9.55;;;;;;;;;;5000833;28;20093;-71
2021/03/25 01:32:25;;;;;;;18.02;9.82;;;;;;;;;;5033418;28;20049;-71
2021/03/25 01:34:51;;;;;;;17.48;9.70;;;;;;;;;;5034694;28;20049;-70
2021/03/25 01:37:17;;;;;;;21.67;10.75;;;;;;;;;;5033701;28;20050;-70
2021/03/25 01:39:43;;;;;;;19.73;10.32;;;;;;;;;;5034386;28;20082;-70
2021/03/25 01:42:26;;;;;;;19.88;10.43;;;;;;;;;;5017044;28;20054;-70
2021/03/25 01:44:52;;;;;;;16.63;9.10;;;;;;;;;;5000623;28;20053;-70
2021/03/25 01:47:19;;;;;;;15.55;8.82;;;;;;;;;;5016060;28;20053;-70
2021/03/25 01:49:45;;;;;;;13.98;8.75;;;;;;;;;;4984616;28;20061;-70
2021/03/25 01:52:16;;;;;;;15.13;9.05;;;;;;;;;;5033971;28;20068;-70
2021/03/25 01:55:00;;;;;;;14.65;9.77;;;;;;;;;;5013890;28;20522;-70
2021/03/25 01:57:37;;;;;;;16.75;9.40;;;;;;;;;;5030758;28;20109;-70
2021/03/25 02:00:20;;;;;;;19.17;9.43;;;;;;;;;;5016356;28;20073;-70
2021/03/25 02:02:56;;;;;;;16.45;9.60;;;;;;;;;;4997132;28;20068;-70
2021/03/25 02:05:29;;;;;;;18.25;9.73;;;;;;;;;;4996999;28;20073;-70
2021/03/25 02:08:00;;;;;;;18.17;9.77;;;;;;;;;;4998283;28;20135;-70
2021/03/25 02:10:27;;;;;;;19.27;10.15;;;;;;;;;;5016444;28;20100;-71
2021/03/25 02:12:59;;;;;;;14.07;9.15;;;;;;;;;;5008080;28;20087;-70
2021/03/25 02:15:47;;;;;;;16.83;8.40;;;;;;;;;;5033151;28;20697;-70
2021/03/25 02:18:26;;;;;;;18.92;9.70;;;;;;;;;;4997655;28;20111;-70
2021/03/25 02:21:16;;;;;;;12.13;8.27;;;;;;;;;;4996488;28;20104;-70
2021/03/25 02:23:57;;;;;;;13.73;8.65;;;;;;;;;;4997765;28;20054;-70
2021/03/25 02:26:29;;;;;;;15.27;8.45;;;;;;;;;;5013145;28;20065;-71
2021/03/25 02:29:18;;;;;;;15.40;8.98;;;;;;;;;;5013750;28;20500;-70
2021/03/25 02:31:47;;;;;;;14.52;8.85;;;;;;;;;;5011303;28;20080;-70
2021/03/25 02:34:23;;;;;;;15.18;9.52;;;;;;;;;;5000045;28;20053;-70
2021/03/25 02:36:55;;;;;;;11.93;8.27;;;;;;;;;;4991012;28;20099;-70
2021/03/25 02:40:00;;;;;;;13.77;8.68;;;;;;;;;;5000392;28;20060;-70
2021/03/25 02:42:39;;;;;;;17.15;9.32;;;;;;;;;;5031841;28;20565;-70
2021/03/25 02:45:12;;;;;;;12.68;9.07;;;;;;;;;;4996043;28;20046;-70
2021/03/25 02:47:40;;;;;;;12.20;8.52;;;;;;;;;;4979753;28;20054;-70
2021/03/25 02:50:17;;;;;;;14.07;8.68;;;;;;;;;;4996112;28;20053;-70
2021/03/25 02:52:46;;;;;;;15.98;9.05;;;;;;;;;;4995671;28;20504;-70
2021/03/25 02:55:13;;;;;;;12.45;8.38;;;;;;;;;;4995706;28;20050;-70
2021/03/25 02:57:43;;;;;;;15.75;8.90;;;;;;;;;;4995749;28;20046;-71
2021/03/25 03:00:13;;;;;;;15.90;8.93;;;;;;;;;;5014202;28;20115;-71
2021/03/25 03:02:41;;;;;;;14.75;8.23;;;;;;;;;;5015236;28;20050;-70
2021/03/25 03:05:14;;;;;;;12.48;8.40;;;;;;;;;;5014902;28;20054;-70
2021/03/25 03:08:05;;;;;;;16.73;8.82;;;;;;;;;;4998711;28;20446;-70
2021/03/25 03:10:38;;;;;;;14.32;8.07;;;;;;;;;;5021336;28;20458;-70
2021/03/25 03:13:04;;;;;;;20.20;10.60;;;;;;;;;;5015200;28;20077;-70
2021/03/25 03:15:35;;;;;;;13.50;8.25;;;;;;;;;;4998151;28;20049;-70
2021/03/25 03:18:29;;;;;;;13.15;8.18;;;;;;;;;;5015273;28;20091;-70
2021/03/25 03:21:02;;;;;;;13.88;8.20;;;;;;;;;;4996366;28;20115;-70
2021/03/25 03:23:28;;;;;;;15.88;9.50;;;;;;;;;;5015205;28;20049;-70
2021/03/25 03:25:55;;;;;;;14.90;9.07;;;;;;;;;;4998092;28;20115;-70
2021/03/25 03:28:34;;;;;;;13.95;8.27;;;;;;;;;;5015107;28;20401;-70
2021/03/25 03:31:03;;;;;;;10.95;7.90;;;;;;;;;;4998631;28;20057;-70
2021/03/25 03:33:36;;;;;;;13.30;8.30;;;;;;;;;;4998627;28;20046;-70
2021/03/25 03:36:06;;;;;;;13.02;7.57;;;;;;;;;;4997666;28;20486;-70
2021/03/25 03:38:55;;;;;;;13.50;8.98;;;;;;;;;;5014681;28;20053;-71
2021/03/25 03:41:24;;;;;;;14.65;8.07;;;;;;;;;;5014645;28;20115;-71
2021/03/25 03:43:50;;;;;;;20.05;10.32;;;;;;;;;;5014482;28;20119;-71
2021/03/25 03:46:21;;;;;;;12.80;7.68;;;;;;;;;;4997650;28;20467;-70
2021/03/25 03:48:51;;;;;;;12.95;8.30;;;;;;;;;;5013859;28;20053;-70
2021/03/25 03:51:28;;;;;;;15.57;8.13;;;;;;;;;;5015091;28;20053;-70
2021/03/25 03:53:59;;;;;;;14.70;9.48;;;;;;;;;;5014816;28;20052;-70
2021/03/25 03:56:49;;;;;;;11.15;7.82;;;;;;;;;;5013453;28;20080;-70
2021/03/25 03:59:30;;;;;;;12.70;8.13;;;;;;;;;;5014411;28;20493;-70
2021/03/25 04:02:02;;;;;;;15.30;9.25;;;;;;;;;;4998512;28;20484;-70
2021/03/25 04:04:30;;;;;;;15.45;8.93;;;;;;;;;;4998313;28;20045;-71
2021/03/25 04:06:58;;;;;;;18.30;9.10;;;;;;;;;;4997210;28;20053;-71
2021/03/25 04:09:35;;;;;;;14.93;8.52;;;;;;;;;;4981985;28;20061;-71
2021/03/25 04:12:08;;;;;;;13.77;8.00;;;;;;;;;;5014158;28;20045;-70
2021/03/25 04:14:38;;;;;;;14.80;9.07;;;;;;;;;;5031586;28;20053;-70
2021/03/25 04:17:06;;;;;;;13.25;8.25;;;;;;;;;;4997237;28;20642;-70
2021/03/25 04:19:35;;;;;;;14.23;7.70;;;;;;;;;;5014164;28;20467;-70
2021/03/25 04:22:07;;;;;;;16.48;8.95;;;;;;;;;;5031589;28;20054;-70
2021/03/25 04:24:38;;;;;;;12.02;8.63;;;;;;;;;;5013793;28;20462;-70
2021/03/25 04:27:07;;;;;;;15.57;8.00;;;;;;;;;;5013182;28;20089;-71
2021/03/25 04:30:05;;;;;;;16.55;8.70;;;;;;;;;;5013941;28;20046;-70
2021/03/25 04:32:31;;;;;;;13.18;8.15;;;;;;;;;;5026902;28;20045;-70
2021/03/25 04:35:00;;;;;;;16.58;9.68;;;;;;;;;;5013718;28;20520;-71
2021/03/25 04:37:28;;;;;;;15.77;9.90;;;;;;;;;;5013434;28;20061;-71
2021/03/25 04:39:57;;;;;;;18.80;10.88;;;;;;;;;;5030164;28;20085;-71
2021/03/25 04:42:23;;;;;;;20.05;10.63;;;;;;;;;;4997717;28;20049;-70
2021/03/25 04:44:52;;;;;;;17.77;10.95;;;;;;;;;;5030099;28;20103;-70
2021/03/25 04:47:23;;;;;;;16.00;9.77;;;;;;;;;;4993071;28;20082;-70
2021/03/25 04:50:11;;;;;;;13.43;9.23;;;;;;;;;;5011312;28;20050;-70
2021/03/25 04:52:39;;;;;;;14.57;8.32;;;;;;;;;;5009731;28;20449;-71
2021/03/25 04:55:08;;;;;;;14.18;8.80;;;;;;;;;;5038531;23;20046;-69
2021/03/25 04:57:36;;;;;;;14.27;8.90;;;;;;;;;;5034815;28;20058;-70
2021/03/25 05:00:15;;;;;;;11.98;8.27;;;;;;;;;;5029767;28;20065;-69
2021/03/25 05:02:42;;;;;;;15.40;9.07;;;;;;;;;;5031029;28;20096;-69
2021/03/25 05:05:21;;;;;;;14.68;9.32;;;;;;;;;;5026144;28;20500;-69
2021/03/25 05:07:50;;;;;;;16.30;8.95;;;;;;;;;;5007967;28;20295;-69
2021/03/25 05:10:24;;;;;;;13.93;9.18;;;;;;;;;;5006094;28;20455;-69
2021/03/25 05:12:52;;;;;;;16.48;9.07;;;;;;;;;;5010196;28;20092;-69
2021/03/25 05:15:18;;;;;;;13.88;9.90;;;;;;;;;;5025392;28;20113;-68
2021/03/25 05:18:06;;;;;;;17.20;8.35;;;;;;;;;;5025993;28;20053;-69
2021/03/25 05:20:46;;;;;;;15.30;8.55;;;;;;;;;;5010086;28;20046;-69
2021/03/25 05:23:18;;;;;;;15.93;8.95;;;;;;;;;;5026190;28;20489;-68
2021/03/25 05:25:59;;;;;;;17.20;8.82;;;;;;;;;;5010439;28;20057;-69
2021/03/25 05:28:39;;;;;;;14.60;8.43;;;;;;;;;;5009960;28;20547;-68
2021/03/25 05:31:07;;;;;;;12.48;8.75;;;;;;;;;;5010507;28;20096;-69
2021/03/25 05:33:33;;;;;;;19.70;9.07;;;;;;;;;;5026238;28;20512;-69
2021/03/25 05:36:09;;;;;;;21.17;10.18;;;;;;;;;;5009158;28;20136;-69
2021/03/25 05:38:35;;;;;;;15.25;9.80;;;;;;;;;;5026516;28;20077;-68
2021/03/25 05:41:20;;;;;;;14.80;8.68;;;;;;;;;;5009622;28;20104;-68
2021/03/25 05:44:23;;;;;;;14.63;9.98;;;;;;;;;;5011297;28;20085;-69
2021/03/25 05:47:11;;;;;;;15.35;9.82;;;;;;;;;;5009045;28;20045;-69
2021/03/25 05:49:51;;;;;;;14.07;8.60;;;;;;;;;;5009913;28;20050;-69
2021/03/25 05:52:34;;;;;;;12.10;8.60;;;;;;;;;;5009811;28;20081;-69
2021/03/25 05:55:44;;;;;;;15.57;9.27;;;;;;;;;;5009643;28;20049;-68
2021/03/25 05:58:44;;;;;;;14.18;8.27;;;;;;;;;;4995421;28;20116;-69
2021/03/25 06:01:37;;;;;;;14.98;8.65;;;;;;;;;;5010905;28;20045;-69
2021/03/25 06:04:24;;;;;;;15.67;8.37;;;;;;;;;;5009545;28;20093;-69
2021/03/25 06:07:09;;;;;;;15.60;9.10;;;;;;;;;;5009421;28;20332;-69
2021/03/25 06:09:47;;;;;;;12.95;8.55;;;;;;;;;;5010660;28;20046;-69
2021/03/25 06:12:22;;;;;;;17.88;9.70;;;;;;;;;;5012539;28;20137;-69
2021/03/25 06:14:51;;;;;;;13.77;8.57;;;;;;;;;;5013828;28;20058;-69
2021/03/25 06:17:52;;;;;;;13.05;8.40;;;;;;;;;;5013823;28;20124;-69
2021/03/25 06:20:26;;;;;;;17.00;8.82;;;;;;;;;;5003652;28;20508;-68
2021/03/25 06:23:15;;;;;;;11.60;7.85;;;;;;;;;;5013698;28;20045;-70
2021/03/25 06:25:54;;;;;;;16.77;8.55;;;;;;;;;;5012205;28;20056;-70
2021/03/25 06:28:37;;;;;;;13.95;8.00;;;;;;;;;;5014181;28;20057;-69
2021/03/25 06:31:06;;;;;;;12.98;8.05;;;;;;;;;;5012662;28;20497;-70
2021/03/25 06:33:35;;;;;;;15.15;8.95;;;;;;;;;;5013782;28;20050;-70
2021/03/25 06:36:09;;;;;;;14.70;8.88;;;;;;;;;;5028360;28;20468;-70
2021/03/25 06:38:46;;;;;;;11.30;7.68;;;;;;;;;;5013012;28;20084;-70
2021/03/25 06:41:28;;;;;;;17.70;9.38;;;;;;;;;;5012751;28;20120;-70
2021/03/25 06:44:02;;;;;;;15.77;8.82;;;;;;;;;;5028603;28;20049;-70
2021/03/25 06:46:39;;;;;;;13.05;8.60;;;;;;;;;;5012094;28;20364;-69
2021/03/25 06:49:19;;;;;;;14.15;8.75;;;;;;;;;;5028847;28;20060;-69
2021/03/25 06:51:45;;;;;;;13.00;8.35;;;;;;;;;;5013908;28;20050;-69
2021/03/25 06:54:12;;;;;;;13.30;8.15;;;;;;;;;;5028559;28;20049;-69
2021/03/25 06:56:49;;;;;;;14.32;8.88;;;;;;;;;;5012650;28;20081;-69
2021/03/25 06:59:44;;;;;;;13.45;8.73;;;;;;;;;;5010846;28;20057;-69
2021/03/25 07:02:29;;;;;;;14.90;8.43;;;;;;;;;;5015816;28;20104;-69
2021/03/25 07:05:00;;;;;;;14.00;8.68;;;;;;;;;;5011805;28;20568;-70
2021/03/25 07:07:34;;;;;;;15.73;9.65;;;;;;;;;;5011406;28;20575;-69
2021/03/25 07:10:00;;;;;;;13.77;8.27;;;;;;;;;;5028198;28;20058;-69
2021/03/25 07:12:30;;;;;;;13.30;8.48;;;;;;;;;;5012135;28;20466;-69
2021/03/25 07:14:56;;;;;;;16.98;8.90;;;;;;;;;;4996065;28;20096;-71
2021/03/25 07:17:31;;;;;;;14.70;8.68;;;;;;;;;;5025033;28;20053;-72
2021/03/25 07:19:58;;;;;;;14.27;9.02;;;;;;;;;;5009599;28;20525;-72
2021/03/25 07:22:26;;;;;;;13.65;7.80;;;;;;;;;;5009489;28;20073;-72
2021/03/25 07:25:01;;;;;;;13.75;8.07;;;;;;;;;;5010123;28;20468;-72
2021/03/25 07:27:33;;;;;;;15.23;9.68;;;;;;;;;;5013224;28;20060;-72
2021/03/25 07:30:03;;;;;;;12.60;8.85;;;;;;;;;;5010311;28;20053;-72
2021/03/25 07:32:36;;;;;;;15.95;8.45;;;;;;;;;;4993814;28;20053;-73
2021/03/25 07:35:31;;;;;;;13.82;8.70;;;;;;;;;;5011068;28;20539;-72
2021/03/25 07:37:57;;;;;;;;;;;;;;;;;;5009913;28;20054;-72
2021/03/25 07:40:37;;;;;;;14.23;7.43;;;;;;;;;;5009752;28;19952;-72
2021/03/25 07:43:15;;;;;;;14.93;8.30;;;;;;;;;;5008943;28;20413;-72
2021/03/25 07:46:19;;;;;;;12.23;7.85;;;;;;;;;;5010087;28;20524;-72
2021/03/25 07:49:10;;;;;;;12.65;7.22;;;;;;;;;;5002578;28;20551;-72
2021/03/25 07:51:42;;;;;;;10.88;7.65;;;;;;;;;;5010424;28;20092;-72
2021/03/25 07:54:27;;;;;;;12.13;7.50;;;;;;;;;;5010100;28;20527;-72
2021/03/25 07:57:03;;;;;;;9.80;7.47;;;;;;;;;;5009171;28;20421;-73
2021/03/25 07:59:36;;;;;;;13.45;7.28;;;;;;;;;;5010514;28;20049;-72
2021/03/25 08:02:23;;;;;;;11.65;7.32;;;;;;;;;;5008954;28;20050;-73
2021/03/25 08:04:49;;;;;;;11.00;7.22;;;;;;;;;;5009252;28;20058;-72
2021/03/25 08:07:15;;;;;;;9.63;6.78;;;;;;;;;;5009842;28;20513;-72
2021/03/25 08:09:56;;;;;;;10.55;6.47;;;;;;;;;;4996424;28;20121;-73
2021/03/25 08:12:31;;;;;;;10.57;6.60;;;;;;;;;;5014412;28;20053;-72
2021/03/25 08:15:25;;;;;;;7.75;6.38;;;;;;;;;;5004947;28;20046;-75
2021/03/25 08:21:24;;;;;;;11.45;6.78;;;;;;;;;;5001412;28;20095;-75
2021/03/25 08:24:23;;;;;;;13.05;7.35;;;;;;;;;;5016453;28;20465;-74
2021/03/25 08:26:52;;;;;;;12.75;6.60;;;;;;;;;;4994238;28;20053;-75
2021/03/25 08:29:27;;;;;;;13.27;6.10;;;;;;;;;;5004494;28;20089;-74
2021/03/25 08:31:58;;;;;;;9.95;5.75;;;;;;;;;;4999587;28;20453;-70
2021/03/25 08:34:49;;;;;;;10.68;6.00;;;;;;;;;;5015256;28;20049;-70
2021/03/25 08:37:27;;;;;;;8.45;6.00;;;;;;;;;;5005162;28;20192;-72
2021/03/25 08:40:03;;;;;;;10.00;5.50;;;;;;;;;;5006924;28;20081;-72
2021/03/25 08:42:36;;;;;;;11.30;4.93;;;;;;;;;;4995982;28;20058;-70
2021/03/25 08:45:24;;;;;;;9.73;4.50;;;;;;;;;;4999159;28;20046;-74
2021/03/25 08:48:19;;;;;;;7.95;5.03;;;;;;;;;;5018171;28;20049;-72
2021/03/25 08:51:12;;;;;;;6.45;4.60;;;;;;;;;;4983489;28;20073;-71
2021/03/25 08:54:12;;;;;;;7.53;4.88;;;;;;;;;;5003522;28;20124;-71
2021/03/25 08:56:49;;;;;;;12.05;5.05;;;;;;;;;;5020845;28;20104;-71
2021/03/25 08:59:29;;;;;;;10.23;5.35;;;;;;;;;;4992153;28;20046;-71
2021/03/25 09:02:03;;;;;;;8.10;4.40;;;;;;;;;;5001633;28;20061;-72
2021/03/25 09:04:38;;;;;;;10.18;5.20;;;;;;;;;;5009934;28;20050;-71
2021/03/25 09:07:04;;;;;;;7.60;4.47;;;;;;;;;;4997666;28;20049;-72
2021/03/25 09:09:36;;;;;;;9.48;4.90;;;;;;;;;;4997679;28;20063;-71
2021/03/25 09:12:13;;;;;;;6.85;4.85;;;;;;;;;;5018871;28;20501;-71
2021/03/25 09:14:39;;;;;;;7.40;4.88;;;;;;;;;;4997256;28;20054;-72
2021/03/25 09:17:11;;;;;;;8.05;4.40;;;;;;;;;;4995369;28;20046;-72
2021/03/25 09:19:41;;;;;;;6.20;4.07;;;;;;;;;;5008024;28;20420;-71
2021/03/25 09:22:07;;;;;;;7.50;4.82;;;;;;;;;;4999372;28;20081;-72
2021/03/25 09:24:34;;;;;;;8.88;4.35;;;;;;;;;;5008378;28;20097;-71
2021/03/25 09:27:07;;;;;;;6.85;5.05;;;;;;;;;;5011510;28;20124;-72
2021/03/25 09:29:57;;;;;;;7.20;4.43;;;;;;;;;;5003727;28;20074;-71
2021/03/25 09:32:35;;;;;;;6.53;4.93;;;;;;;;;;5012978;28;20116;-71
2021/03/25 09:35:04;;;;;;;6.57;4.65;;;;;;;;;;5006591;28;20362;-71
2021/03/25 09:37:32;;;;;;;8.18;4.95;;;;;;;;;;4997172;28;20082;-71
2021/03/25 09:40:46;;;;;;;6.20;4.65;;;;;;;;;;5004806;28;20096;-71
2021/03/25 09:43:24;;;;;;;9.10;4.97;;;;;;;;;;5002276;28;20037;-72
2021/03/25 09:45:50;;;;;;;8.15;5.00;;;;;;;;;;4996454;28;20103;-72
2021/03/25 09:48:22;;;;;;;6.47;4.75;;;;;;;;;;5007832;28;20046;-73
2021/03/25 09:51:06;;;;;;;10.93;4.82;;;;;;;;;;5001696;28;20046;-72
2021/03/25 09:53:54;;;;;;;9.07;4.93;;;;;;;;;;5011378;28;20093;-72
2021/03/25 09:56:29;;;;;;;7.43;4.53;;;;;;;;;;5007957;28;20556;-73
2021/03/25 09:58:59;;;;;;;8.65;5.30;;;;;;;;;;5002181;28;20112;-74
2021/03/25 10:01:41;;;;;;;10.15;5.47;;;;;;;;;;4993485;28;20061;-74
2021/03/25 10:04:39;;;;;;;7.45;5.00;;;;;;;;;;5001633;28;20116;-77
2021/03/25 10:07:12;;;;;;;6.10;4.75;;;;;;;;;;5008417;28;20041;-74
2021/03/25 10:09:47;;;;;;;8.93;4.63;;;;;;;;;;5015651;28;20390;-75
2021/03/25 10:12:14;;;;;;;9.27;4.45;;;;;;;;;;5002935;28;20081;-74
2021/03/25 10:14:51;;;;;;;8.85;4.28;;;;;;;;;;5008184;28;20420;-75
2021/03/25 10:17:46;;;;;;;7.78;4.78;;;;;;;;;;4991494;28;20049;-74
2021/03/25 10:20:51;;;;;;;9.85;5.43;;;;;;;;;;5000673;28;20051;-77
2021/03/25 10:28:56;;;;;;;13.38;5.57;;;;;;;;;;4980403;28;20073;-73
2021/03/25 10:32:01;;;;;;;7.00;4.57;;;;;;;;;;4982470;28;20061;-71
2021/03/25 10:37:24;;;;;;;7.80;5.30;;;;;;;;;;4324397;26;20047;-74
2021/03/25 10:39:52;;;;;;;10.30;4.90;;;;;;;;;;4990627;28;20492;-73
2021/03/25 10:42:32;;;;;;;7.80;5.13;;;;;;;;;;4981898;28;20097;-74
2021/03/25 10:45:23;;;;;;;10.65;5.60;;;;;;;;;;4985559;28;20077;-73
2021/03/25 10:47:55;;;;;;;11.05;5.60;;;;;;;;;;4982891;28;20043;-74
2021/03/25 10:51:07;;;;;;;10.02;5.35;;;;;;;;;;4983876;28;20050;-72
2021/03/25 10:54:11;;;;;;;13.07;5.88;;;;;;;;;;4979892;28;20054;-72
2021/03/25 11:07:40;;;;;;;15.05;7.38;;;;;;;;;;4154427;26;20395;-74
2021/03/25 11:14:37;;;;;;;17.65;6.45;;;;;;;;;;5007260;23;20062;-83
2021/03/25 11:17:29;;;;;;;14.93;7.53;;;;;;;;;;4953986;28;20118;-83
2021/03/25 11:20:04;;;;;;;11.60;7.00;;;;;;;;;;4987037;28;20478;-84
2021/03/25 11:22:32;;;;;;;12.40;6.93;;;;;;;;;;4961471;28;20050;-84
2021/03/25 11:25:02;;;;;;;9.52;5.82;;;;;;;;;;4985893;28;20046;-85
2021/03/25 11:27:29;;;;;;;11.32;6.65;;;;;;;;;;4961037;28;20058;-85
2021/03/25 11:30:22;;;;;;;14.63;7.75;;;;;;;;;;4956983;28;20101;-85
2021/03/25 11:32:56;;;;;;;17.10;7.47;;;;;;;;;;5001732;28;20561;-84
2021/03/25 11:35:34;;;;;;;14.63;7.18;;;;;;;;;;4992396;28;20396;-84
2021/03/25 11:38:25;;;;;;;17.52;7.72;;;;;;;;;;4988845;28;20110;-84
2021/03/25 11:40:59;;;;;;;11.73;7.20;;;;;;;;;;4987740;28;20447;-84
2021/03/25 11:43:52;;;;;;;15.93;7.13;;;;;;;;;;4964049;28;20482;-85
2021/03/25 11:46:32;;;;;;;11.00;6.57;;;;;;;;;;4968718;28;20128;-84
2021/03/25 11:49:09;;;;;;;11.77;6.82;;;;;;;;;;4988192;28;20045;-86
2021/03/25 11:51:42;;;;;;;12.35;7.00;;;;;;;;;;5001550;28;20645;-86
2021/03/25 11:54:36;;;;;;;11.88;6.63;;;;;;;;;;4980804;28;20139;-86
2021/03/25 11:57:28;;;;;;;17.88;7.15;;;;;;;;;;4986054;28;20084;-85
2021/03/25 12:00:16;;;;;;;13.18;6.07;;;;;;;;;;5013018;28;20060;-86
2021/03/25 12:02:43;;;;;;;10.23;6.65;;;;;;;;;;4967780;28;20535;-85
2021/03/25 12:05:19;;;;;;;11.43;5.88;;;;;;;;;;4960682;28;20135;-87
2021/03/25 12:07:46;;;;;;;10.55;5.82;;;;;;;;;;4993357;28;20053;-84
2021/03/25 12:10:15;;;;;;;10.05;5.07;;;;;;;;;;4950397;28;20495;-85
2021/03/25 12:12:42;;;;;;;10.95;6.25;;;;;;;;;;4993133;28;20049;-84
2021/03/25 12:15:09;;;;;;;10.23;6.28;;;;;;;;;;4967379;28;20042;-85
2021/03/25 12:17:36;;;;;;;10.13;6.13;;;;;;;;;;4960623;28;20085;-84
2021/03/25 12:20:06;;;;;;;9.50;5.78;;;;;;;;;;4958137;28;20086;-82
2021/03/25 12:22:32;;;;;;;13.05;6.70;;;;;;;;;;4977340;28;20053;-81
2021/03/25 12:24:59;;;;;;;11.40;6.47;;;;;;;;;;4967344;28;20082;-83
2021/03/25 12:27:27;;;;;;;11.57;6.03;;;;;;;;;;4965944;28;20057;-84
2021/03/25 12:29:54;;;;;;;9.23;5.47;;;;;;;;;;4960672;28;20510;-83
2021/03/25 12:32:27;;;;;;;10.55;5.82;;;;;;;;;;4961019;28;20060;-83
2021/03/25 12:35:08;;;;;;;11.38;6.35;;;;;;;;;;4960357;28;20054;-85
2021/03/25 12:37:34;;;;;;;11.40;6.78;;;;;;;;;;4972488;28;20047;-84
2021/03/25 12:40:02;;;;;;;11.65;5.72;;;;;;;;;;4972461;28;20058;-84
2021/03/25 12:42:28;;;;;;;14.10;6.30;;;;;;;;;;4964269;28;20050;-87
2021/03/25 12:44:56;;;;;;;13.43;5.93;;;;;;;;;;4994311;28;20050;-83
2021/03/25 12:47:22;;;;;;;8.68;5.57;;;;;;;;;;4994805;28;20054;-84
2021/03/25 12:49:59;;;;;;;13.95;6.05;;;;;;;;;;4995883;28;20148;-85
2021/03/25 12:52:26;;;;;;;8.55;5.88;;;;;;;;;;4975343;28;20057;-84
2021/03/25 12:54:52;;;;;;;11.68;6.55;;;;;;;;;;4986088;28;20453;-82
2021/03/25 12:57:22;;;;;;;10.57;6.22;;;;;;;;;;4979548;28;20072;-85
2021/03/25 12:59:48;;;;;;;8.43;5.88;;;;;;;;;;4983664;28;20050;-84
2021/03/25 13:02:14;;;;;;;9.45;5.63;;;;;;;;;;5001067;28;20050;-83
2021/03/25 13:04:41;;;;;;;9.88;5.72;;;;;;;;;;4972788;28;20082;-82
2021/03/25 13:07:07;;;;;;;8.43;5.47;;;;;;;;;;4987669;28;20050;-82
2021/03/25 13:09:33;;;;;;;8.55;5.65;;;;;;;;;;4980620;28;20057;-82
2021/03/25 13:12:21;;;;;;;7.65;5.13;;;;;;;;;;4979171;28;20046;-82
2021/03/25 13:14:47;;;;;;;8.95;4.85;;;;;;;;;;4979120;28;20069;-90
2021/03/25 13:17:28;;;;;;;13.88;5.43;;;;;;;;;;4974171;28;20500;-89
2021/03/25 13:20:06;;;;;;;9.75;5.40;;;;;;;;;;4990015;28;20490;-90
2021/03/25 13:22:33;;;;;;;9.85;5.45;;;;;;;;;;4981376;28;20137;-89
2021/03/25 13:25:00;;;;;;;10.32;5.80;;;;;;;;;;5004024;28;20100;-90
2021/03/25 13:27:26;;;;;;;10.73;6.40;;;;;;;;;;4974097;28;20116;-89
2021/03/25 13:29:52;;;;;;;10.40;4.97;;;;;;;;;;4967694;28;20058;-90
2021/03/25 13:32:19;;;;;;;9.27;5.55;;;;;;;;;;4964152;28;20435;-89
2021/03/25 13:34:45;;;;;;;7.00;4.65;;;;;;;;;;4996993;28;20069;-90
2021/03/25 13:37:12;;;;;;;11.65;5.75;;;;;;;;;;4954739;28;20057;-90
2021/03/25 13:39:38;;;;;;;9.65;5.43;;;;;;;;;;4965231;28;20421;-91
2021/03/25 13:42:05;;;;;;;9.93;5.90;;;;;;;;;;4981170;28;20053;-90
2021/03/25 13:44:32;;;;;;;8.88;6.15;;;;;;;;;;5014529;28;20464;-90
2021/03/25 13:46:58;;;;;;;13.20;6.07;;;;;;;;;;4996276;28;20425;-89
2021/03/25 13:49:24;;;;;;;10.88;5.68;;;;;;;;;;4992782;28;20050;-89
2021/03/25 13:51:51;;;;;;;8.68;5.10;;;;;;;;;;5013200;28;20048;-88
2021/03/25 13:54:17;;;;;;;8.27;5.45;;;;;;;;;;5011988;28;20497;-88
2021/03/25 13:56:43;;;;;;;13.05;6.63;;;;;;;;;;4999716;28;20049;-88
2021/03/25 13:59:14;;;;;;;9.25;5.53;;;;;;;;;;4986611;28;20061;-84
2021/03/25 14:01:40;;;;;;;9.25;5.50;;;;;;;;;;4988255;28;20136;-77
2021/03/25 14:04:07;;;;;;;9.63;5.68;;;;;;;;;;5006667;28;20042;-85
2021/03/25 14:06:33;;;;;;;8.40;5.70;;;;;;;;;;4961801;28;20061;-84
2021/03/25 14:09:01;;;;;;;9.38;6.03;;;;;;;;;;4955589;28;20061;-83
2021/03/25 14:11:27;;;;;;;10.77;5.30;;;;;;;;;;4965466;28;20049;-84
2021/03/25 14:13:56;;;;;;;10.38;5.13;;;;;;;;;;4974013;28;20062;-86
2021/03/25 14:16:24;;;;;;;9.43;5.40;;;;;;;;;;5002212;28;20042;-84
2021/03/25 14:18:52;;;;;;;9.55;5.53;;;;;;;;;;5004844;28;20061;-84
2021/03/25 14:21:24;;;;;;;9.95;4.93;;;;;;;;;;4982745;28;20054;-86
2021/03/25 14:23:50;;;;;;;8.00;5.20;;;;;;;;;;4960895;28;20057;-84
2021/03/25 14:26:17;;;;;;;9.57;5.32;;;;;;;;;;4967124;28;20884;-83
2021/03/25 14:28:44;;;;;;;9.77;5.55;;;;;;;;;;4975478;28;20825;-83
2021/03/25 14:32:29;;;;;;;;;;;;;;;;;;;;;
2021/03/25 14:34:57;;;;;;;10.18;5.90;;;;;;;;;;4965771;28;20043;-82
2021/03/25 14:37:23;;;;;;;11.13;6.30;;;;;;;;;;4996282;28;20140;-83
2021/03/25 14:39:51;;;;;;;11.43;5.78;;;;;;;;;;4957210;28;20151;-85
2021/03/25 14:42:18;;;;;;;9.35;5.55;;;;;;;;;;4970638;28;20045;-83
2021/03/25 14:44:44;;;;;;;8.27;5.90;;;;;;;;;;4996830;28;20165;-84
2021/03/25 14:49:49;;;;;;;10.13;6.30;;;;;;;;;;4967922;28;20055;-71
2021/03/25 14:52:57;;;;;;;8.63;5.63;;;;;;;;;;4969831;28;20122;-71
2021/03/25 14:55:37;;;;;;;11.93;6.57;;;;;;;;;;4952888;29;20051;-71
2021/03/25 14:58:03;;;;;;;10.85;6.10;;;;;;;;;;4952229;29;20471;-72
2021/03/25 15:00:42;;;;;;;13.60;7.13;;;;;;;;;;4954941;28;20145;-74
2021/03/25 15:07:05;;;;;;;17.08;6.50;;;;;;;;;;4952095;29;20661;-75
2021/03/25 15:09:39;;;;;;;16.15;7.57;;;;;;;;;;4950095;28;20059;-72
2021/03/25 15:12:27;;;;;;;14.23;6.95;;;;;;;;;;4949513;29;20051;-72
2021/03/25 15:14:54;;;;;;;10.60;6.75;;;;;;;;;;4951519;29;20047;-70
2021/03/25 15:17:29;;;;;;;15.07;7.45;;;;;;;;;;4952621;28;20399;-74
2021/03/25 15:20:05;;;;;;;14.40;8.07;;;;;;;;;;4952232;29;20426;-71
2021/03/25 15:22:32;;;;;;;11.55;6.78;;;;;;;;;;4937503;29;20055;-70
2021/03/25 15:25:01;;;;;;;11.20;6.60;;;;;;;;;;4947610;29;20082;-73
2021/03/25 15:27:28;;;;;;;12.27;6.72;;;;;;;;;;4950149;29;20051;-70
2021/03/25 15:29:54;;;;;;;11.23;6.55;;;;;;;;;;4952737;29;20126;-72
2021/03/25 15:32:22;;;;;;;11.90;6.97;;;;;;;;;;4957268;28;20138;-72
2021/03/25 15:34:49;;;;;;;14.30;6.88;;;;;;;;;;4951661;29;20054;-72
2021/03/25 15:37:20;;;;;;;12.48;7.50;;;;;;;;;;4943369;28;20051;-72
2021/03/25 15:39:46;;;;;;;12.07;7.50;;;;;;;;;;4968275;28;20059;-70
2021/03/25 15:42:26;;;;;;;10.63;6.82;;;;;;;;;;4954132;28;20055;-71
2021/03/25 15:44:53;;;;;;;15.38;7.88;;;;;;;;;;4943187;29;20502;-71
2021/03/25 15:47:33;;;;;;;15.10;8.05;;;;;;;;;;4952575;28;20458;-74
2021/03/25 15:50:00;;;;;;;14.38;7.82;;;;;;;;;;4966458;28;20071;-70